sensor_id;sensor_type;location;lat;lon;timestamp;pressure;altitude;pressure_sealevel;temperature;humidity
15634;BME280;14654;48.898;8.308;2023-04-07T00:00:49;100321.00;;;9.17;95.07
15634;BME280;14654;48.898;8.308;2023-04-07T00:03:14;100319.25;;;9.18;95.32
15634;BME280;14654;48.898;8.308;2023-04-07T00:05:40;100319.25;;;9.19;95.47
15634;BME280;14654;48.898;8.308;2023-04-07T00:08:05;100307.19;;;9.20;95.53
15634;BME280;14654;48.898;8.308;2023-04-07T00:10:31;100306.34;;;9.21;95.53
15634;BME280;14654;48.898;8.308;2023-04-07T00:12:56;100302.06;;;9.21;95.57
15634;BME280;14654;48.898;8.308;2023-04-07T00:15:21;100294.31;;;9.21;95.51
15634;BME280;14654;48.898;8.308;2023-04-07T00:17:47;100290.88;;;9.19;95.77
15634;BME280;14654;48.898;8.308;2023-04-07T00:20:12;100290.88;;;9.14;96.14
15634;BME280;14654;48.898;8.308;2023-04-07T00:22:37;100282.28;;;9.08;96.29
15634;BME280;14654;48.898;8.308;2023-04-07T00:25:03;100279.69;;;9.03;96.56
15634;BME280;14654;48.898;8.308;2023-04-07T00:27:28;100277.97;;;9.02;96.81
15634;BME280;14654;48.898;8.308;2023-04-07T00:29:53;100266.81;;;9.00;96.89
15634;BME280;14654;48.898;8.308;2023-04-07T00:32:20;100272.84;;;9.00;96.78
15634;BME280;14654;48.898;8.308;2023-04-07T00:34:45;100262.53;;;8.94;96.80
15634;BME280;14654;48.898;8.308;2023-04-07T00:37:10;100269.41;;;8.91;97.08
15634;BME280;14654;48.898;8.308;2023-04-07T00:39:36;100265.13;;;8.88;97.33
15634;BME280;14654;48.898;8.308;2023-04-07T00:42:03;100260.81;;;8.89;97.44
15634;BME280;14654;48.898;8.308;2023-04-07T00:44:29;100252.22;;;8.91;97.29
15634;BME280;14654;48.898;8.308;2023-04-07T00:46:55;100260.81;;;8.89;97.25
15634;BME280;14654;48.898;8.308;2023-04-07T00:49:20;100250.53;;;8.82;97.38
15634;BME280;14654;48.898;8.308;2023-04-07T00:51:46;100253.97;;;8.78;97.58
15634;BME280;14654;48.898;8.308;2023-04-07T00:54:11;100248.81;;;8.77;97.65
15634;BME280;14654;48.898;8.308;2023-04-07T00:56:37;100243.66;;;8.74;97.81
15634;BME280;14654;48.898;8.308;2023-04-07T00:59:05;100249.69;;;8.73;97.76
15634;BME280;14654;48.898;8.308;2023-04-07T01:02:10;100240.22;;;8.70;97.62
15634;BME280;14654;48.898;8.308;2023-04-07T01:07:15;100235.91;;;8.64;97.87
15634;BME280;14654;48.898;8.308;2023-04-07T01:09:46;100234.22;;;8.62;98.00
15634;BME280;14654;48.898;8.308;2023-04-07T01:14:54;100225.66;;;8.50;98.30
15634;BME280;14654;48.898;8.308;2023-04-07T01:17:24;100213.56;;;8.46;98.68
15634;BME280;14654;48.898;8.308;2023-04-07T01:22:20;100210.16;;;8.38;99.17
15634;BME280;14654;48.898;8.308;2023-04-07T01:27:53;100200.72;;;8.29;99.71
15634;BME280;14654;48.898;8.308;2023-04-07T01:30:21;100202.41;;;8.26;99.93
15634;BME280;14654;48.898;8.308;2023-04-07T01:32:50;100197.25;;;8.24;100.00
15634;BME280;14654;48.898;8.308;2023-04-07T01:35:17;100199.84;;;8.22;100.00
15634;BME280;14654;48.898;8.308;2023-04-07T01:37:43;100203.28;;;8.21;100.00
15634;BME280;14654;48.898;8.308;2023-04-07T01:40:13;100202.41;;;8.21;100.00
15634;BME280;14654;48.898;8.308;2023-04-07T01:42:39;100198.97;;;8.22;100.00
15634;BME280;14654;48.898;8.308;2023-04-07T01:45:06;100199.00;;;8.25;100.00
15634;BME280;14654;48.898;8.308;2023-04-07T01:47:33;100195.53;;;8.28;100.00
15634;BME280;14654;48.898;8.308;2023-04-07T01:50:02;100194.69;;;8.32;99.98
15634;BME280;14654;48.898;8.308;2023-04-07T01:52:34;100195.53;;;8.35;99.65
15634;BME280;14654;48.898;8.308;2023-04-07T01:55:01;100195.53;;;8.38;99.21
15634;BME280;14654;48.898;8.308;2023-04-07T01:57:27;100202.41;;;8.41;98.88
15634;BME280;14654;48.898;8.308;2023-04-07T01:59:52;100193.81;;;8.44;98.58
15634;BME280;14654;48.898;8.308;2023-04-07T02:02:18;100195.53;;;8.46;98.51
15634;BME280;14654;48.898;8.308;2023-04-07T02:04:53;100199.00;;;8.48;98.59
15634;BME280;14654;48.898;8.308;2023-04-07T02:07:23;100198.13;;;8.49;98.52
15634;BME280;14654;48.898;8.308;2023-04-07T02:09:56;100196.41;;;8.56;98.60
15634;BME280;14654;48.898;8.308;2023-04-07T02:12:22;100189.50;;;8.60;98.41
15634;BME280;14654;48.898;8.308;2023-04-07T02:14:50;100183.47;;;8.65;98.37
15634;BME280;14654;48.898;8.308;2023-04-07T02:17:17;100189.47;;;8.71;98.08
15634;BME280;14654;48.898;8.308;2023-04-07T02:19:43;100184.31;;;8.72;97.99
15634;BME280;14654;48.898;8.308;2023-04-07T02:22:11;100191.19;;;8.72;97.80
15634;BME280;14654;48.898;8.308;2023-04-07T02:24:36;100181.75;;;8.71;97.69
15634;BME280;14654;48.898;8.308;2023-04-07T02:27:01;100184.31;;;8.71;97.73
15634;BME280;14654;48.898;8.308;2023-04-07T02:29:27;100182.59;;;8.69;97.63
15634;BME280;14654;48.898;8.308;2023-04-07T02:31:52;100183.47;;;8.68;97.51
15634;BME280;14654;48.898;8.308;2023-04-07T02:34:17;100178.31;;;8.64;97.48
15634;BME280;14654;48.898;8.308;2023-04-07T02:36:43;100184.34;;;8.57;97.56
15634;BME280;14654;48.898;8.308;2023-04-07T02:39:08;100175.75;;;8.53;97.75
15634;BME280;14654;48.898;8.308;2023-04-07T02:41:34;100171.47;;;8.52;98.00
15634;BME280;14654;48.898;8.308;2023-04-07T02:43:59;100175.78;;;8.51;98.50
15634;BME280;14654;48.898;8.308;2023-04-07T02:46:25;100177.50;;;8.49;98.57
15634;BME280;14654;48.898;8.308;2023-04-07T02:48:50;100164.59;;;8.48;98.95
15634;BME280;14654;48.898;8.308;2023-04-07T02:51:16;100168.88;;;8.47;98.95
15634;BME280;14654;48.898;8.308;2023-04-07T02:53:41;100166.31;;;8.46;99.06
15634;BME280;14654;48.898;8.308;2023-04-07T02:56:07;100167.16;;;8.46;98.97
15634;BME280;14654;48.898;8.308;2023-04-07T02:58:32;100164.59;;;8.45;98.96
15634;BME280;14654;48.898;8.308;2023-04-07T03:00:57;100168.03;;;8.41;98.71
15634;BME280;14654;48.898;8.308;2023-04-07T03:03:22;100162.03;;;8.37;98.91
15634;BME280;14654;48.898;8.308;2023-04-07T03:05:48;100154.28;;;8.34;99.23
15634;BME280;14654;48.898;8.308;2023-04-07T03:08:13;100150.00;;;8.31;99.46
15634;BME280;14654;48.898;8.308;2023-04-07T03:10:38;100156.00;;;8.32;99.88
15634;BME280;14654;48.898;8.308;2023-04-07T03:13:04;100147.44;;;8.31;100.00
15634;BME280;14654;48.898;8.308;2023-04-07T03:15:30;100150.00;;;8.31;100.00
15634;BME280;14654;48.898;8.308;2023-04-07T03:17:55;100151.72;;;8.34;100.00
15634;BME280;14654;48.898;8.308;2023-04-07T03:20:20;100146.56;;;8.34;100.00
15634;BME280;14654;48.898;8.308;2023-04-07T03:22:46;100150.00;;;8.36;99.85
15634;BME280;14654;48.898;8.308;2023-04-07T03:25:11;100155.13;;;8.37;99.57
15634;BME280;14654;48.898;8.308;2023-04-07T03:27:37;100150.00;;;8.36;99.87
15634;BME280;14654;48.898;8.308;2023-04-07T03:30:03;100151.69;;;8.32;100.00
15634;BME280;14654;48.898;8.308;2023-04-07T03:32:28;100155.16;;;8.30;100.00
15634;BME280;14654;48.898;8.308;2023-04-07T03:34:53;100149.13;;;8.28;100.00
15634;BME280;14654;48.898;8.308;2023-04-07T03:37:19;100143.97;;;8.24;100.00
15634;BME280;14654;48.898;8.308;2023-04-07T03:39:44;100145.72;;;8.22;100.00
15634;BME280;14654;48.898;8.308;2023-04-07T03:42:10;100139.69;;;8.20;100.00
15634;BME280;14654;48.898;8.308;2023-04-07T03:44:35;100151.72;;;8.17;100.00
15634;BME280;14654;48.898;8.308;2023-04-07T03:47:00;100143.16;;;8.15;100.00
15634;BME280;14654;48.898;8.308;2023-04-07T03:49:26;100144.88;;;8.16;100.00
15634;BME280;14654;48.898;8.308;2023-04-07T03:51:51;100146.56;;;8.15;100.00
15634;BME280;14654;48.898;8.308;2023-04-07T03:54:16;100146.59;;;8.14;100.00
15634;BME280;14654;48.898;8.308;2023-04-07T03:56:42;100145.72;;;8.13;100.00
15634;BME280;14654;48.898;8.308;2023-04-07T03:59:07;100151.72;;;8.12;100.00
15634;BME280;14654;48.898;8.308;2023-04-07T04:01:33;100146.59;;;8.09;100.00
15634;BME280;14654;48.898;8.308;2023-04-07T04:03:58;100152.63;;;8.08;100.00
15634;BME280;14654;48.898;8.308;2023-04-07T04:06:23;100150.03;;;8.06;100.00
15634;BME280;14654;48.898;8.308;2023-04-07T04:08:49;100145.72;;;8.04;100.00
15634;BME280;14654;48.898;8.308;2023-04-07T04:11:14;100141.44;;;8.01;100.00
15634;BME280;14654;48.898;8.308;2023-04-07T04:13:40;100138.00;;;7.94;100.00
15634;BME280;14654;48.898;8.308;2023-04-07T04:16:06;100137.16;;;7.86;100.00
15634;BME280;14654;48.898;8.308;2023-04-07T04:18:31;100139.72;;;7.78;100.00
15634;BME280;14654;48.898;8.308;2023-04-07T04:20:56;100137.13;;;7.72;100.00
15634;BME280;14654;48.898;8.308;2023-04-07T04:23:22;100146.56;;;7.66;100.00
15634;BME280;14654;48.898;8.308;2023-04-07T04:25:47;100150.00;;;7.60;100.00
15634;BME280;14654;48.898;8.308;2023-04-07T04:28:12;100150.00;;;7.55;100.00
15634;BME280;14654;48.898;8.308;2023-04-07T04:30:38;100145.72;;;7.54;100.00
15634;BME280;14654;48.898;8.308;2023-04-07T04:33:03;100151.72;;;7.56;100.00
15634;BME280;14654;48.898;8.308;2023-04-07T04:35:28;100153.44;;;7.59;100.00
15634;BME280;14654;48.898;8.308;2023-04-07T04:37:54;100156.06;;;7.63;100.00
15634;BME280;14654;48.898;8.308;2023-04-07T04:40:19;100162.03;;;7.69;100.00
15634;BME280;14654;48.898;8.308;2023-04-07T04:42:44;100154.31;;;7.73;100.00
15634;BME280;14654;48.898;8.308;2023-04-07T04:45:10;100157.78;;;7.77;100.00
15634;BME280;14654;48.898;8.308;2023-04-07T04:47:35;100158.63;;;7.81;100.00
15634;BME280;14654;48.898;8.308;2023-04-07T04:50:04;100161.19;;;7.79;100.00
15634;BME280;14654;48.898;8.308;2023-04-07T04:52:29;100157.75;;;7.78;100.00
15634;BME280;14654;48.898;8.308;2023-04-07T04:54:55;100157.75;;;7.78;100.00
15634;BME280;14654;48.898;8.308;2023-04-07T04:57:20;100161.19;;;7.81;100.00
15634;BME280;14654;48.898;8.308;2023-04-07T04:59:46;100166.34;;;7.82;100.00
15634;BME280;14654;48.898;8.308;2023-04-07T05:02:11;100166.34;;;7.85;100.00
15634;BME280;14654;48.898;8.308;2023-04-07T05:04:37;100167.22;;;7.87;100.00
15634;BME280;14654;48.898;8.308;2023-04-07T05:07:02;100163.78;;;7.88;100.00
15634;BME280;14654;48.898;8.308;2023-04-07T05:09:28;100156.03;;;7.93;100.00
15634;BME280;14654;48.898;8.308;2023-04-07T05:11:53;100160.34;;;7.97;100.00
15634;BME280;14654;48.898;8.308;2023-04-07T05:14:18;100163.78;;;8.01;100.00
15634;BME280;14654;48.898;8.308;2023-04-07T05:16:44;100158.59;;;8.05;100.00
15634;BME280;14654;48.898;8.308;2023-04-07T05:19:09;100168.06;;;8.09;100.00
15634;BME280;14654;48.898;8.308;2023-04-07T05:21:35;100167.22;;;8.14;100.00
15634;BME280;14654;48.898;8.308;2023-04-07T05:24:00;100169.78;;;8.14;100.00
15634;BME280;14654;48.898;8.308;2023-04-07T05:26:26;100162.91;;;8.13;100.00
15634;BME280;14654;48.898;8.308;2023-04-07T05:28:51;100161.19;;;8.13;100.00
15634;BME280;14654;48.898;8.308;2023-04-07T05:31:16;100168.91;;;8.16;100.00
15634;BME280;14654;48.898;8.308;2023-04-07T05:33:41;100169.78;;;8.21;100.00
15634;BME280;14654;48.898;8.308;2023-04-07T05:36:07;100163.75;;;8.27;100.00
15634;BME280;14654;48.898;8.308;2023-04-07T05:38:32;100169.75;;;8.34;100.00
15634;BME280;14654;48.898;8.308;2023-04-07T05:40:57;100174.91;;;8.38;100.00
15634;BME280;14654;48.898;8.308;2023-04-07T05:43:23;100177.47;;;8.43;100.00
15634;BME280;14654;48.898;8.308;2023-04-07T05:45:48;100170.63;;;8.48;100.00
15634;BME280;14654;48.898;8.308;2023-04-07T05:48:13;100162.03;;;8.52;100.00
15634;BME280;14654;48.898;8.308;2023-04-07T05:50:39;100163.72;;;8.57;100.00
15634;BME280;14654;48.898;8.308;2023-04-07T05:53:04;100168.00;;;8.64;100.00
15634;BME280;14654;48.898;8.308;2023-04-07T05:55:29;100155.09;;;8.68;100.00
15634;BME280;14654;48.898;8.308;2023-04-07T05:57:55;100149.06;;;8.76;100.00
15634;BME280;14654;48.898;8.308;2023-04-07T06:00:20;100155.03;;;8.84;100.00
15634;BME280;14654;48.898;8.308;2023-04-07T06:02:46;100161.88;;;8.96;100.00
15634;BME280;14654;48.898;8.308;2023-04-07T06:05:11;100150.56;;;9.20;100.00
15634;BME280;14654;48.898;8.308;2023-04-07T06:07:36;100153.69;;;9.69;100.00
15634;BME280;14654;48.898;8.308;2023-04-07T06:10:02;100158.59;;;10.01;99.95
15634;BME280;14654;48.898;8.308;2023-04-07T06:12:27;100143.72;;;10.27;98.79
15634;BME280;14654;48.898;8.308;2023-04-07T06:14:54;100140.94;;;10.48;97.49
15634;BME280;14654;48.898;8.308;2023-04-07T06:17:19;100149.16;;;10.85;96.13
15634;BME280;14654;48.898;8.308;2023-04-07T06:19:45;100143.56;;;11.14;94.72
15634;BME280;14654;48.898;8.308;2023-04-07T06:22:10;100143.31;;;11.33;93.94
15634;BME280;14654;48.898;8.308;2023-04-07T06:24:36;100152.66;;;11.43;92.92
15634;BME280;14654;48.898;8.308;2023-04-07T06:27:01;100146.69;;;11.41;92.74
15634;BME280;14654;48.898;8.308;2023-04-07T06:29:28;100152.72;;;11.40;92.72
15634;BME280;14654;48.898;8.308;2023-04-07T06:31:53;100144.16;;;11.91;91.42
15634;BME280;14654;48.898;8.308;2023-04-07T06:34:19;100146.78;;;12.85;87.73
15634;BME280;14654;48.898;8.308;2023-04-07T06:36:45;100154.31;;;13.76;84.97
15634;BME280;14654;48.898;8.308;2023-04-07T06:39:10;100150.13;;;14.71;81.93
15634;BME280;14654;48.898;8.308;2023-04-07T06:41:35;100148.72;;;15.48;79.08
15634;BME280;14654;48.898;8.308;2023-04-07T06:44:03;100148.25;;;15.90;77.52
15634;BME280;14654;48.898;8.308;2023-04-07T06:46:28;100150.94;;;15.60;77.70
15634;BME280;14654;48.898;8.308;2023-04-07T06:48:54;100154.72;;;15.23;78.94
15634;BME280;14654;48.898;8.308;2023-04-07T06:51:19;100154.34;;;15.35;78.20
15634;BME280;14654;48.898;8.308;2023-04-07T06:53:44;100152.47;;;15.11;78.39
15634;BME280;14654;48.898;8.308;2023-04-07T06:56:12;100148.50;;;14.66;79.01
15634;BME280;14654;48.898;8.308;2023-04-07T06:58:38;100161.88;;;14.22;80.28
15634;BME280;14654;48.898;8.308;2023-04-07T07:01:04;100153.38;;;14.46;80.11
15634;BME280;14654;48.898;8.308;2023-04-07T07:03:30;100154.13;;;15.13;77.72
15634;BME280;14654;48.898;8.308;2023-04-07T07:05:59;100151.84;;;15.59;74.94
15634;BME280;14654;48.898;8.308;2023-04-07T07:08:25;100151.75;;;15.91;74.53
15634;BME280;14654;48.898;8.308;2023-04-07T07:10:51;100155.09;;;15.94;74.64
15634;BME280;14654;48.898;8.308;2023-04-07T07:13:18;100151.34;;;15.75;74.74
15634;BME280;14654;48.898;8.308;2023-04-07T07:15:44;100155.47;;;15.55;75.48
15634;BME280;14654;48.898;8.308;2023-04-07T07:18:10;100157.06;;;15.59;75.84
15634;BME280;14654;48.898;8.308;2023-04-07T07:20:36;100162.19;;;15.62;75.96
15634;BME280;14654;48.898;8.308;2023-04-07T07:23:01;100161.59;;;15.54;75.99
15634;BME280;14654;48.898;8.308;2023-04-07T07:25:26;100156.44;;;15.22;76.69
15634;BME280;14654;48.898;8.308;2023-04-07T07:27:52;100160.97;;;15.17;76.89
15634;BME280;14654;48.898;8.308;2023-04-07T07:30:21;100157.69;;;15.39;76.44
15634;BME280;14654;48.898;8.308;2023-04-07T07:32:47;100161.28;;;15.63;76.25
15634;BME280;14654;48.898;8.308;2023-04-07T07:35:13;100151.75;;;15.91;75.92
15634;BME280;14654;48.898;8.308;2023-04-07T07:37:38;100159.59;;;16.16;75.40
15634;BME280;14654;48.898;8.308;2023-04-07T07:40:04;100171.22;;;16.33;75.07
15634;BME280;14654;48.898;8.308;2023-04-07T07:42:30;100162.78;;;16.50;74.39
15634;BME280;14654;48.898;8.308;2023-04-07T07:44:56;100156.31;;;16.60;74.05
15634;BME280;14654;48.898;8.308;2023-04-07T07:47:21;100164.41;;;16.52;74.19
15634;BME280;14654;48.898;8.308;2023-04-07T07:49:47;100171.06;;;16.37;74.67
15634;BME280;14654;48.898;8.308;2023-04-07T07:52:13;100171.41;;;16.26;74.83
15634;BME280;14654;48.898;8.308;2023-04-07T07:54:38;100174.19;;;16.22;74.90
15634;BME280;14654;48.898;8.308;2023-04-07T07:57:04;100177.50;;;16.02;75.20
15634;BME280;14654;48.898;8.308;2023-04-07T07:59:30;100180.47;;;15.89;75.64
15634;BME280;14654;48.898;8.308;2023-04-07T08:01:56;100181.63;;;15.80;76.08
15634;BME280;14654;48.898;8.308;2023-04-07T08:04:21;100184.41;;;15.74;76.43
15634;BME280;14654;48.898;8.308;2023-04-07T08:06:47;100185.00;;;15.55;76.29
15634;BME280;14654;48.898;8.308;2023-04-07T08:09:13;100179.22;;;15.46;76.73
15634;BME280;14654;48.898;8.308;2023-04-07T08:11:40;100182.94;;;15.37;76.89
15634;BME280;14654;48.898;8.308;2023-04-07T08:14:05;100181.25;;;15.36;76.99
15634;BME280;14654;48.898;8.308;2023-04-07T08:16:31;100181.00;;;15.44;76.58
15634;BME280;14654;48.898;8.308;2023-04-07T08:18:56;100180.91;;;15.47;76.53
15634;BME280;14654;48.898;8.308;2023-04-07T08:21:21;100177.97;;;15.58;76.47
15634;BME280;14654;48.898;8.308;2023-04-07T08:23:47;100181.34;;;15.61;76.07
15634;BME280;14654;48.898;8.308;2023-04-07T08:26:12;100190.84;;;15.64;76.18
15634;BME280;14654;48.898;8.308;2023-04-07T08:28:38;100180.41;;;15.64;76.46
15634;BME280;14654;48.898;8.308;2023-04-07T08:31:03;100179.63;;;15.60;76.61
15634;BME280;14654;48.898;8.308;2023-04-07T08:33:29;100184.91;;;15.59;76.77
15634;BME280;14654;48.898;8.308;2023-04-07T08:35:54;100189.31;;;15.57;76.67
15634;BME280;14654;48.898;8.308;2023-04-07T08:38:20;100195.16;;;15.36;76.64
15634;BME280;14654;48.898;8.308;2023-04-07T08:40:45;100199.88;;;15.23;77.38
15634;BME280;14654;48.898;8.308;2023-04-07T08:43:13;100200.00;;;15.19;77.33
15634;BME280;14654;48.898;8.308;2023-04-07T08:45:40;100201.81;;;15.17;77.40
15634;BME280;14654;48.898;8.308;2023-04-07T08:48:16;100203.34;;;15.24;77.84
15634;BME280;14654;48.898;8.308;2023-04-07T08:50:44;100205.50;;;15.39;77.59
15634;BME280;14654;48.898;8.308;2023-04-07T08:53:12;100202.94;;;15.66;77.37
15634;BME280;14654;48.898;8.308;2023-04-07T08:55:40;100205.50;;;15.96;76.79
15634;BME280;14654;48.898;8.308;2023-04-07T08:58:08;100204.88;;;16.15;76.14
15634;BME280;14654;48.898;8.308;2023-04-07T09:00:39;100209.19;;;16.16;75.90
15634;BME280;14654;48.898;8.308;2023-04-07T09:03:07;100203.28;;;16.11;76.15
15634;BME280;14654;48.898;8.308;2023-04-07T09:05:34;100205.22;;;16.04;76.02
15634;BME280;14654;48.898;8.308;2023-04-07T09:08:01;100208.03;;;15.98;76.11
15634;BME280;14654;48.898;8.308;2023-04-07T09:10:26;100211.75;;;15.91;76.34
15634;BME280;14654;48.898;8.308;2023-04-07T09:12:52;100210.44;;;15.76;77.19
15634;BME280;14654;48.898;8.308;2023-04-07T09:15:18;100213.59;;;15.59;77.19
15634;BME280;14654;48.898;8.308;2023-04-07T09:17:43;100210.66;;;15.41;77.88
15634;BME280;14654;48.898;8.308;2023-04-07T09:20:09;100215.38;;;15.28;78.02
15634;BME280;14654;48.898;8.308;2023-04-07T09:22:38;100214.00;;;15.16;78.01
15634;BME280;14654;48.898;8.308;2023-04-07T09:25:14;100215.13;;;15.07;78.24
15634;BME280;14654;48.898;8.308;2023-04-07T09:27:39;100217.44;;;15.17;78.48
15634;BME280;14654;48.898;8.308;2023-04-07T09:30:12;100216.81;;;15.38;77.93
15634;BME280;14654;48.898;8.308;2023-04-07T09:32:41;100222.38;;;15.56;77.83
15634;BME280;14654;48.898;8.308;2023-04-07T09:35:07;100218.25;;;15.77;75.85
15634;BME280;14654;48.898;8.308;2023-04-07T09:37:33;100224.09;;;15.85;75.26
15634;BME280;14654;48.898;8.308;2023-04-07T09:39:58;100218.84;;;15.87;75.23
15634;BME280;14654;48.898;8.308;2023-04-07T09:42:25;100219.34;;;15.98;75.13
15634;BME280;14654;48.898;8.308;2023-04-07T09:44:54;100225.88;;;16.12;74.96
15634;BME280;14654;48.898;8.308;2023-04-07T09:47:25;100227.25;;;16.22;74.78
15634;BME280;14654;48.898;8.308;2023-04-07T09:49:53;100227.75;;;16.34;74.76
15634;BME280;14654;48.898;8.308;2023-04-07T09:52:24;100225.41;;;16.51;74.43
15634;BME280;14654;48.898;8.308;2023-04-07T09:54:49;100225.69;;;16.69;74.07
15634;BME280;14654;48.898;8.308;2023-04-07T09:57:17;100221.72;;;16.82;73.58
15634;BME280;14654;48.898;8.308;2023-04-07T09:59:43;100224.59;;;17.00;73.26
15634;BME280;14654;48.898;8.308;2023-04-07T10:02:10;100222.31;;;17.14;73.27
15634;BME280;14654;48.898;8.308;2023-04-07T10:04:36;100216.59;;;17.28;72.52
15634;BME280;14654;48.898;8.308;2023-04-07T10:07:01;100219.53;;;17.43;72.36
15634;BME280;14654;48.898;8.308;2023-04-07T10:09:28;100223.84;;;17.44;72.40
15634;BME280;14654;48.898;8.308;2023-04-07T10:11:55;100228.16;;;17.45;71.95
15634;BME280;14654;48.898;8.308;2023-04-07T10:14:25;100225.16;;;17.32;71.83
15634;BME280;14654;48.898;8.308;2023-04-07T10:16:51;100218.91;;;17.12;71.97
15634;BME280;14654;48.898;8.308;2023-04-07T10:19:18;100223.75;;;16.99;72.24
15634;BME280;14654;48.898;8.308;2023-04-07T10:21:44;100224.97;;;16.89;72.29
15634;BME280;14654;48.898;8.308;2023-04-07T10:24:23;100208.00;;;16.75;71.61
15634;BME280;14654;48.898;8.308;2023-04-07T10:26:55;100210.00;;;16.69;72.32
15634;BME280;14654;48.898;8.308;2023-04-07T10:29:22;100212.72;;;16.66;72.19
15634;BME280;14654;48.898;8.308;2023-04-07T10:31:50;100215.31;;;16.66;71.98
15634;BME280;14654;48.898;8.308;2023-04-07T10:34:16;100216.03;;;16.71;72.08
15634;BME280;14654;48.898;8.308;2023-04-07T10:37:08;100217.06;;;16.90;72.21
15634;BME280;14654;48.898;8.308;2023-04-07T10:39:33;100220.91;;;17.05;71.51
15634;BME280;14654;48.898;8.308;2023-04-07T10:42:00;100216.00;;;17.20;71.15
15634;BME280;14654;48.898;8.308;2023-04-07T10:47:04;100210.69;;;17.45;70.47
15634;BME280;14654;48.898;8.308;2023-04-07T10:49:34;100209.72;;;17.70;70.36
15634;BME280;14654;48.898;8.308;2023-04-07T10:54:38;100203.75;;;18.32;68.33
15634;BME280;14654;48.898;8.308;2023-04-07T10:59:37;100205.88;;;18.84;67.20
15634;BME280;14654;48.898;8.308;2023-04-07T11:04:39;100197.56;;;19.14;65.02
15634;BME280;14654;48.898;8.308;2023-04-07T11:07:05;100197.22;;;19.22;64.84
15634;BME280;14654;48.898;8.308;2023-04-07T11:09:31;100205.50;;;19.31;64.61
15634;BME280;14654;48.898;8.308;2023-04-07T11:11:56;100201.38;;;19.45;64.52
15634;BME280;14654;48.898;8.308;2023-04-07T11:14:32;100200.94;;;19.54;64.74
15634;BME280;14654;48.898;8.308;2023-04-07T11:16:58;100197.94;;;19.62;64.42
15634;BME280;14654;48.898;8.308;2023-04-07T11:19:25;100192.09;;;19.74;64.59
15634;BME280;14654;48.898;8.308;2023-04-07T11:22:17;100188.91;;;19.87;63.43
15634;BME280;14654;48.898;8.308;2023-04-07T11:24:45;100192.69;;;19.99;63.49
15634;BME280;14654;48.898;8.308;2023-04-07T11:27:14;100192.25;;;20.08;63.66
15634;BME280;14654;48.898;8.308;2023-04-07T11:29:40;100198.28;;;20.10;63.23
15634;BME280;14654;48.898;8.308;2023-04-07T11:32:06;100199.41;;;20.04;63.42
15634;BME280;14654;48.898;8.308;2023-04-07T11:34:35;100205.66;;;20.02;63.74
15634;BME280;14654;48.898;8.308;2023-04-07T11:37:21;100192.38;;;20.05;61.84
15634;BME280;14654;48.898;8.308;2023-04-07T11:39:55;100202.50;;;19.95;62.37
15634;BME280;14654;48.898;8.308;2023-04-07T11:42:36;100196.47;;;19.93;62.24
15634;BME280;14654;48.898;8.308;2023-04-07T11:45:02;100198.13;;;19.95;62.66
15634;BME280;14654;48.898;8.308;2023-04-07T11:47:39;100197.63;;;20.05;62.93
15634;BME280;14654;48.898;8.308;2023-04-07T11:50:05;100202.41;;;20.14;62.74
15634;BME280;14654;48.898;8.308;2023-04-07T11:52:45;100204.84;;;20.19;62.52
15634;BME280;14654;48.898;8.308;2023-04-07T11:55:21;100201.50;;;20.15;62.35
15634;BME280;14654;48.898;8.308;2023-04-07T11:57:48;100199.09;;;20.10;62.61
15634;BME280;14654;48.898;8.308;2023-04-07T12:00:15;100200.91;;;20.10;62.76
15634;BME280;14654;48.898;8.308;2023-04-07T12:02:41;100203.44;;;20.12;62.60
15634;BME280;14654;48.898;8.308;2023-04-07T12:05:07;100199.78;;;20.14;62.26
15634;BME280;14654;48.898;8.308;2023-04-07T12:07:38;100195.16;;;20.02;62.94
15634;BME280;14654;48.898;8.308;2023-04-07T12:10:18;100200.38;;;19.84;62.66
15634;BME280;14654;48.898;8.308;2023-04-07T12:12:45;100204.47;;;19.53;63.25
15634;BME280;14654;48.898;8.308;2023-04-07T12:15:10;100201.97;;;19.32;63.97
15634;BME280;14654;48.898;8.308;2023-04-07T12:17:36;100198.69;;;19.27;63.96
15634;BME280;14654;48.898;8.308;2023-04-07T12:20:01;100193.72;;;19.21;64.45
15634;BME280;14654;48.898;8.308;2023-04-07T12:22:26;100200.09;;;18.96;64.07
15634;BME280;14654;48.898;8.308;2023-04-07T12:24:52;100199.81;;;18.63;64.22
15634;BME280;14654;48.898;8.308;2023-04-07T12:27:17;100196.63;;;18.35;64.54
15634;BME280;14654;48.898;8.308;2023-04-07T12:29:43;100205.91;;;18.22;65.08
15634;BME280;14654;48.898;8.308;2023-04-07T12:32:08;100209.06;;;18.09;65.54
15634;BME280;14654;48.898;8.308;2023-04-07T12:34:34;100197.31;;;17.97;66.00
15634;BME280;14654;48.898;8.308;2023-04-07T12:37:01;100208.97;;;17.89;66.17
15634;BME280;14654;48.898;8.308;2023-04-07T12:39:27;100216.44;;;17.77;66.64
15634;BME280;14654;48.898;8.308;2023-04-07T12:41:52;100216.06;;;17.64;67.27
15634;BME280;14654;48.898;8.308;2023-04-07T12:44:18;100220.13;;;17.49;67.56
15634;BME280;14654;48.898;8.308;2023-04-07T12:46:43;100220.84;;;17.31;67.74
15634;BME280;14654;48.898;8.308;2023-04-07T12:49:09;100225.00;;;17.13;68.03
15634;BME280;14654;48.898;8.308;2023-04-07T12:51:35;100227.94;;;17.03;67.85
15634;BME280;14654;48.898;8.308;2023-04-07T12:54:01;100223.34;;;17.10;68.14
15634;BME280;14654;48.898;8.308;2023-04-07T12:56:27;100223.56;;;17.28;67.64
15634;BME280;14654;48.898;8.308;2023-04-07T12:58:53;100217.03;;;17.40;67.25
15634;BME280;14654;48.898;8.308;2023-04-07T13:01:19;100218.63;;;17.44;66.94
15634;BME280;14654;48.898;8.308;2023-04-07T13:03:44;100220.88;;;17.53;66.94
15634;BME280;14654;48.898;8.308;2023-04-07T13:06:10;100219.72;;;17.60;66.04
15634;BME280;14654;48.898;8.308;2023-04-07T13:08:35;100217.88;;;17.62;65.94
15634;BME280;14654;48.898;8.308;2023-04-07T13:11:01;100220.03;;;17.75;65.30